createdAt,value
2023-03-01T00:00:31.238Z,2.7777777777778283
2023-03-01T00:01:31.213Z,2.7777777777778283
2023-03-01T00:02:31.295Z,2.7777777777778283
2023-03-01T00:03:31.303Z,2.7777777777778283
2023-03-01T00:04:31.264Z,2.7777777777778283
2023-03-01T00:05:31.177Z,2.7777777777778283
2023-03-01T00:06:31.504Z,2.7777777777778283
2023-03-01T00:07:31.262Z,2.7777777777778283
2023-03-01T00:08:32.307Z,2.7777777777778283
2023-03-01T00:09:32.251Z,2.7777777777778283
2023-03-01T00:10:32.243Z,2.7777777777778283
2023-03-01T00:11:32.275Z,2.7222222222222285
2023-03-01T00:12:32.248Z,2.7222222222222285
2023-03-01T00:13:32.268Z,2.7777777777778283
2023-03-01T00:14:32.219Z,2.7222222222222285
2023-03-01T00:15:32.240Z,2.7222222222222285
2023-03-01T00:16:32.639Z,2.7222222222222285
2023-03-01T00:17:32.294Z,2.7222222222222285
2023-03-01T00:18:32.222Z,2.7222222222222285
2023-03-01T00:19:32.315Z,2.7222222222222285
2023-03-01T00:20:32.292Z,2.7222222222222285
2023-03-01T00:21:32.272Z,2.7222222222222285
2023-03-01T00:22:32.228Z,2.7222222222222285
2023-03-01T00:23:32.256Z,2.6111111111111427
2023-03-01T00:24:32.222Z,2.6111111111111427
2023-03-01T00:25:32.295Z,2.6111111111111427
2023-03-01T00:26:32.719Z,2.6111111111111427
2023-03-01T00:27:32.240Z,2.500000000000057
2023-03-01T00:28:32.247Z,2.500000000000057
2023-03-01T00:29:32.272Z,2.500000000000057
2023-03-01T00:30:32.232Z,2.500000000000057
2023-03-01T00:31:32.267Z,2.388888888888914
2023-03-01T00:32:32.247Z,2.388888888888914
2023-03-01T00:33:32.274Z,2.388888888888914
2023-03-01T00:34:32.221Z,2.388888888888914
2023-03-01T00:35:32.244Z,2.388888888888914
2023-03-01T00:36:32.667Z,2.388888888888914
2023-03-01T00:37:32.256Z,2.388888888888914
2023-03-01T00:38:32.244Z,2.388888888888914
2023-03-01T00:39:32.264Z,2.2777777777778283
2023-03-01T00:40:32.200Z,2.2777777777778283
2023-03-01T00:41:32.269Z,2.2777777777778283
2023-03-01T00:42:32.241Z,2.2777777777778283
2023-03-01T00:43:32.258Z,2.2777777777778283
2023-03-01T00:44:32.241Z,2.2777777777778283
2023-03-01T00:45:32.286Z,2.2222222222222854
2023-03-01T00:46:32.762Z,2.2222222222222854
2023-03-01T00:47:32.245Z,2.2222222222222854
2023-03-01T00:48:32.224Z,2.1111111111111427
2023-03-01T00:49:32.239Z,2.2222222222222854
2023-03-01T00:50:32.228Z,2.2222222222222854
2023-03-01T00:51:32.244Z,2.2222222222222854
2023-03-01T00:52:32.268Z,2.2222222222222854
2023-03-01T00:53:32.277Z,2.2222222222222854
2023-03-01T00:54:32.243Z,2.2222222222222854
2023-03-01T00:55:32.249Z,2.2222222222222854
2023-03-01T00:56:32.575Z,2.2222222222222854
2023-03-01T00:57:32.295Z,2.2222222222222854
2023-03-01T00:58:32.250Z,2.2222222222222854
2023-03-01T00:59:32.232Z,2.1111111111111427
2023-03-01T01:00:32.270Z,2.1111111111111427
2023-03-01T01:01:32.448Z,2.1111111111111427
2023-03-01T01:02:32.254Z,2.1111111111111427
2023-03-01T01:03:32.249Z,2.1111111111111427
2023-03-01T01:04:32.244Z,2.1111111111111427
2023-03-01T01:05:32.296Z,2.1111111111111427
2023-03-01T01:06:32.688Z,2.1111111111111427
2023-03-01T01:07:32.290Z,2.1111111111111427
2023-03-01T01:08:32.227Z,2.1111111111111427
2023-03-01T01:09:32.229Z,2.1111111111111427
2023-03-01T01:10:32.214Z,2.1111111111111427
2023-03-01T01:11:32.263Z,2.1111111111111427
2023-03-01T01:12:32.240Z,2.2222222222222854
2023-03-01T01:13:32.265Z,2.2222222222222854
2023-03-01T01:14:32.250Z,2.2222222222222854
2023-03-01T01:15:32.274Z,2.2222222222222854
2023-03-01T01:16:32.714Z,2.1111111111111427
2023-03-01T01:17:32.252Z,2.1111111111111427
2023-03-01T01:18:32.245Z,2.1111111111111427
2023-03-01T01:19:32.238Z,2.1111111111111427
2023-03-01T01:20:32.269Z,2.1111111111111427
2023-03-01T01:21:32.256Z,2.1111111111111427
2023-03-01T01:22:32.269Z,2.2222222222222854
2023-03-01T01:23:32.238Z,2.2222222222222854
2023-03-01T01:24:32.241Z,2.2222222222222854
2023-03-01T01:25:32.248Z,2.2222222222222854
2023-03-01T01:26:32.853Z,2.2222222222222854
2023-03-01T01:27:32.211Z,2.2222222222222854
2023-03-01T01:28:32.270Z,2.2222222222222854
2023-03-01T01:29:32.247Z,2.2222222222222854
2023-03-01T01:30:32.241Z,2.2222222222222854
2023-03-01T01:31:32.379Z,2.1111111111111427
2023-03-01T01:32:32.293Z,2.1111111111111427
2023-03-01T01:33:32.265Z,2.1111111111111427
2023-03-01T01:34:32.243Z,2.1111111111111427
2023-03-01T01:35:32.277Z,2.1111111111111427
2023-03-01T01:36:32.714Z,2.000000000000057
2023-03-01T01:37:32.290Z,2.000000000000057
2023-03-01T01:38:32.245Z,2.000000000000057
2023-03-01T01:39:32.260Z,2.000000000000057
2023-03-01T01:40:32.401Z,1.8888888888889142
2023-03-01T01:41:32.438Z,1.8888888888889142
2023-03-01T01:42:32.371Z,1.8888888888889142
2023-03-01T01:43:32.340Z,1.8888888888889142
2023-03-01T01:44:32.394Z,1.8888888888889142
2023-03-01T01:45:32.377Z,1.8888888888889142
2023-03-01T01:46:32.935Z,1.8888888888889142
2023-03-01T01:47:32.371Z,1.7777777777778283
2023-03-01T01:48:32.400Z,1.7777777777778283
2023-03-01T01:49:32.413Z,1.7777777777778283
2023-03-01T01:50:32.363Z,1.7777777777778283
2023-03-01T01:51:32.420Z,1.7777777777778283
2023-03-01T01:52:32.401Z,1.7777777777778283
2023-03-01T01:53:32.323Z,1.7777777777778283
2023-03-01T01:54:32.398Z,1.7222222222222854
2023-03-01T01:55:32.366Z,1.7222222222222854
2023-03-01T01:56:32.581Z,1.7222222222222854
2023-03-01T01:57:32.244Z,1.7222222222222854
2023-03-01T01:58:32.211Z,1.7222222222222854
2023-03-01T01:59:32.243Z,1.6111111111111427
2023-03-01T02:00:32.245Z,1.6111111111111427
2023-03-01T02:01:32.236Z,1.6111111111111427
2023-03-01T02:02:32.354Z,1.6111111111111427
2023-03-01T02:03:32.308Z,1.5000000000000568
2023-03-01T02:04:32.242Z,1.5000000000000568
2023-03-01T02:05:32.222Z,1.5000000000000568
2023-03-01T02:06:32.770Z,1.5000000000000568
2023-03-01T02:07:32.194Z,1.5000000000000568
2023-03-01T02:08:32.255Z,1.5000000000000568
2023-03-01T02:09:32.232Z,1.5000000000000568
2023-03-01T02:10:32.223Z,1.3888888888889142
2023-03-01T02:11:32.231Z,1.3888888888889142
2023-03-01T02:12:32.247Z,1.3888888888889142
2023-03-01T02:13:32.249Z,1.3888888888889142
2023-03-01T02:14:32.232Z,1.2777777777778283
2023-03-01T02:15:32.247Z,1.2777777777778283
2023-03-01T02:16:32.862Z,1.2222222222222854
2023-03-01T02:17:32.249Z,1.2222222222222854
2023-03-01T02:18:32.188Z,1.2222222222222854
2023-03-01T02:19:32.227Z,1.1111111111111427
2023-03-01T02:20:32.267Z,1.1111111111111427
2023-03-01T02:21:32.237Z,1.1111111111111427
2023-03-01T02:22:32.299Z,1.1111111111111427
2023-03-01T02:23:32.222Z,1.0000000000000568
2023-03-01T02:24:32.265Z,1.0000000000000568
2023-03-01T02:25:32.259Z,0.888888888888971
2023-03-01T02:26:32.628Z,0.888888888888971
2023-03-01T02:27:32.244Z,0.888888888888971
2023-03-01T02:28:32.251Z,0.7777777777778283
2023-03-01T02:29:32.240Z,0.7777777777778283
2023-03-01T02:30:32.210Z,0.7222222222222854
2023-03-01T02:31:32.261Z,0.7222222222222854
2023-03-01T02:32:32.245Z,0.7222222222222854
2023-03-01T02:33:32.228Z,0.7222222222222854
2023-03-01T02:34:32.263Z,0.7222222222222854
2023-03-01T02:35:32.295Z,0.7222222222222854
2023-03-01T02:36:32.612Z,0.7222222222222854
2023-03-01T02:37:32.252Z,0.7222222222222854
2023-03-01T02:38:32.279Z,0.7222222222222854
2023-03-01T02:39:32.221Z,0.7222222222222854
2023-03-01T02:40:32.253Z,0.7222222222222854
2023-03-01T02:41:32.198Z,0.7222222222222854
2023-03-01T02:42:32.249Z,0.7222222222222854
2023-03-01T02:43:32.229Z,0.7222222222222854
2023-03-01T02:44:32.246Z,0.7222222222222854
2023-03-01T02:45:32.238Z,0.7222222222222854
2023-03-01T02:46:32.578Z,0.7222222222222854
2023-03-01T02:47:32.226Z,0.6111111111111427
2023-03-01T02:48:32.251Z,0.6111111111111427
2023-03-01T02:49:32.234Z,0.6111111111111427
2023-03-01T02:50:32.198Z,0.6111111111111427
2023-03-01T02:51:32.221Z,0.6111111111111427
2023-03-01T02:52:32.241Z,0.6111111111111427
2023-03-01T02:53:32.247Z,0.6111111111111427
2023-03-01T02:54:32.262Z,0.6111111111111427
2023-03-01T02:55:32.209Z,0.6111111111111427
2023-03-01T02:56:32.479Z,0.6111111111111427
2023-03-01T02:57:32.210Z,0.6111111111111427
2023-03-01T02:58:32.212Z,0.6111111111111427
2023-03-01T02:59:32.238Z,0.5000000000000568
2023-03-01T03:00:32.269Z,0.5000000000000568
2023-03-01T03:01:32.380Z,0.5000000000000568
2023-03-01T03:02:32.263Z,0.5000000000000568
2023-03-01T03:03:32.326Z,0.5000000000000568
2023-03-01T03:04:32.236Z,0.5000000000000568
2023-03-01T03:05:32.244Z,0.5000000000000568
2023-03-01T03:06:32.390Z,0.5000000000000568
2023-03-01T03:07:32.240Z,0.5000000000000568
2023-03-01T03:08:32.317Z,0.5000000000000568
2023-03-01T03:09:32.254Z,0.6111111111111427
2023-03-01T03:10:32.276Z,0.6111111111111427
2023-03-01T03:11:32.218Z,0.5000000000000568
2023-03-01T03:12:32.375Z,0.5000000000000568
2023-03-01T03:13:32.374Z,0.5000000000000568
2023-03-01T03:14:32.210Z,0.5000000000000568
2023-03-01T03:15:32.239Z,0.5000000000000568
2023-03-01T03:16:32.550Z,0.5000000000000568
2023-03-01T03:17:32.239Z,0.5000000000000568
2023-03-01T03:18:32.198Z,0.5000000000000568
2023-03-01T03:19:32.222Z,0.5000000000000568
2023-03-01T03:20:32.237Z,0.5000000000000568
2023-03-01T03:21:32.225Z,0.5000000000000568
2023-03-01T03:22:32.404Z,0.5000000000000568
2023-03-01T03:23:32.360Z,0.5000000000000568
2023-03-01T03:24:32.232Z,0.38888888888891415
2023-03-01T03:25:32.261Z,0.38888888888891415
2023-03-01T03:26:32.600Z,0.38888888888891415
2023-03-01T03:27:32.357Z,0.38888888888891415
2023-03-01T03:28:32.334Z,0.38888888888891415
2023-03-01T03:29:32.228Z,0.38888888888891415
2023-03-01T03:30:32.220Z,0.38888888888891415
2023-03-01T03:31:32.437Z,0.38888888888891415
2023-03-01T03:32:32.374Z,0.38888888888891415
2023-03-01T03:33:32.220Z,0.38888888888891415
2023-03-01T03:34:32.219Z,0.38888888888891415
2023-03-01T03:35:32.297Z,0.38888888888891415
2023-03-01T03:36:32.497Z,0.38888888888891415
2023-03-01T03:37:32.237Z,0.38888888888891415
2023-03-01T03:38:32.378Z,0.38888888888891415
2023-03-01T03:39:32.363Z,0.38888888888891415
2023-03-01T03:40:32.332Z,0.38888888888891415
2023-03-01T03:41:32.247Z,0.38888888888891415
2023-03-01T03:42:32.399Z,0.38888888888891415
2023-03-01T03:43:32.207Z,0.38888888888891415
2023-03-01T03:44:32.353Z,0.2777777777778283
2023-03-01T03:45:32.290Z,0.2777777777778283
2023-03-01T03:46:32.700Z,0.2777777777778283
2023-03-01T03:47:32.270Z,0.2777777777778283
2023-03-01T03:48:32.221Z,0.2777777777778283
2023-03-01T03:49:32.210Z,0.2777777777778283
2023-03-01T03:50:32.190Z,0.22222222222222854
2023-03-01T03:51:32.345Z,0.22222222222222854
2023-03-01T03:52:32.242Z,0.22222222222222854
2023-03-01T03:53:32.258Z,0.22222222222222854
2023-03-01T03:54:32.217Z,0.22222222222222854
2023-03-01T03:55:32.214Z,0.22222222222222854
2023-03-01T03:56:32.543Z,0.11111111111114269
2023-03-01T03:57:32.236Z,0.11111111111114269
2023-03-01T03:58:32.225Z,0.11111111111114269
2023-03-01T03:59:32.186Z,0.11111111111114269
2023-03-01T04:00:32.221Z,0.11111111111114269
2023-03-01T04:01:32.253Z,5.684341886080802e-14
2023-03-01T04:02:32.286Z,5.684341886080802e-14
2023-03-01T04:03:32.192Z,5.684341886080802e-14
2023-03-01T04:04:32.217Z,5.684341886080802e-14
2023-03-01T04:05:32.245Z,5.684341886080802e-14
2023-03-01T04:06:32.501Z,5.684341886080802e-14
2023-03-01T04:07:32.202Z,5.684341886080802e-14
2023-03-01T04:08:32.236Z,-0.11111111111108585
2023-03-01T04:09:32.288Z,-0.11111111111108585
2023-03-01T04:10:32.238Z,-0.11111111111108585
2023-03-01T04:11:32.201Z,-0.11111111111108585
2023-03-01T04:12:32.263Z,-0.11111111111108585
2023-03-01T04:13:32.285Z,-0.11111111111108585
2023-03-01T04:14:32.221Z,-0.11111111111108585
2023-03-01T04:15:32.210Z,-0.11111111111108585
2023-03-01T04:16:32.652Z,-0.11111111111108585
2023-03-01T04:17:32.277Z,-0.11111111111108585
2023-03-01T04:18:32.217Z,-0.11111111111108585
2023-03-01T04:19:32.241Z,-0.11111111111108585
2023-03-01T04:20:32.245Z,-0.11111111111108585
2023-03-01T04:21:32.205Z,-0.11111111111108585
2023-03-01T04:22:32.244Z,-0.11111111111108585
2023-03-01T04:23:32.214Z,-0.11111111111108585
2023-03-01T04:24:32.248Z,-0.11111111111108585
2023-03-01T04:25:32.214Z,5.684341886080802e-14
2023-03-01T04:26:32.578Z,-0.11111111111108585
2023-03-01T04:27:32.202Z,-0.11111111111108585
2023-03-01T04:28:32.250Z,-0.11111111111108585
2023-03-01T04:29:32.218Z,5.684341886080802e-14
2023-03-01T04:30:32.241Z,5.684341886080802e-14
2023-03-01T04:31:32.261Z,5.684341886080802e-14
2023-03-01T04:32:32.297Z,5.684341886080802e-14
2023-03-01T04:33:32.183Z,5.684341886080802e-14
2023-03-01T04:34:32.202Z,5.684341886080802e-14
2023-03-01T04:35:32.422Z,5.684341886080802e-14
2023-03-01T04:36:32.644Z,5.684341886080802e-14
2023-03-01T04:37:32.210Z,5.684341886080802e-14
2023-03-01T04:38:32.199Z,5.684341886080802e-14
2023-03-01T04:39:32.210Z,5.684341886080802e-14
2023-03-01T04:40:32.220Z,5.684341886080802e-14
2023-03-01T04:41:32.187Z,5.684341886080802e-14
2023-03-01T04:42:32.254Z,5.684341886080802e-14
2023-03-01T04:43:32.217Z,5.684341886080802e-14
2023-03-01T04:44:32.229Z,5.684341886080802e-14
2023-03-01T04:45:32.272Z,5.684341886080802e-14
2023-03-01T04:46:32.514Z,5.684341886080802e-14
2023-03-01T04:47:32.282Z,5.684341886080802e-14
2023-03-01T04:48:32.227Z,5.684341886080802e-14
2023-03-01T04:49:32.210Z,5.684341886080802e-14
2023-03-01T04:50:32.213Z,5.684341886080802e-14
2023-03-01T04:51:32.179Z,5.684341886080802e-14
2023-03-01T04:52:32.219Z,5.684341886080802e-14
2023-03-01T04:53:32.201Z,5.684341886080802e-14
2023-03-01T04:54:32.194Z,5.684341886080802e-14
2023-03-01T04:55:32.201Z,5.684341886080802e-14
2023-03-01T04:56:32.675Z,-0.11111111111108585
2023-03-01T04:57:32.194Z,-0.11111111111108585
2023-03-01T04:58:32.193Z,-0.11111111111108585
2023-03-01T04:59:32.197Z,-0.11111111111108585
2023-03-01T05:00:32.228Z,-0.11111111111108585
2023-03-01T05:01:32.236Z,-0.11111111111108585
2023-03-01T05:02:32.252Z,-0.11111111111108585
2023-03-01T05:03:32.217Z,-0.11111111111108585
2023-03-01T05:04:32.276Z,-0.11111111111108585
2023-03-01T05:05:32.412Z,-0.11111111111108585
2023-03-01T05:06:32.610Z,-0.11111111111108585
2023-03-01T05:07:32.260Z,-0.11111111111108585
2023-03-01T05:08:32.228Z,-0.11111111111108585
2023-03-01T05:09:32.237Z,-0.11111111111108585
2023-03-01T05:10:32.196Z,-0.11111111111108585
2023-03-01T05:11:32.208Z,-0.11111111111108585
2023-03-01T05:12:32.219Z,-0.11111111111108585
2023-03-01T05:13:32.205Z,-0.11111111111108585
2023-03-01T05:14:32.218Z,-0.2222222222221717
2023-03-01T05:15:32.413Z,-0.2222222222221717
2023-03-01T05:16:34.888Z,-0.2222222222221717
2023-03-01T05:17:32.258Z,-0.2777777777777146
2023-03-01T05:18:32.205Z,-0.2777777777777146
2023-03-01T05:19:32.190Z,-0.2777777777777146
2023-03-01T05:20:32.234Z,-0.2777777777777146
2023-03-01T05:21:32.229Z,-0.2777777777777146
2023-03-01T05:22:32.219Z,-0.2777777777777146
2023-03-01T05:23:32.236Z,-0.2777777777777146
2023-03-01T05:24:32.295Z,-0.2777777777777146
2023-03-01T05:25:32.189Z,-0.2777777777777146
2023-03-01T05:26:32.218Z,-0.2777777777777146
2023-03-01T05:27:32.219Z,-0.2777777777777146
2023-03-01T05:28:32.197Z,-0.2777777777777146
2023-03-01T05:29:32.227Z,-0.3888888888888573
2023-03-01T05:30:32.170Z,-0.3888888888888573
2023-03-01T05:31:32.342Z,-0.3888888888888573
2023-03-01T05:32:32.218Z,-0.3888888888888573
2023-03-01T05:33:32.237Z,-0.3888888888888573
2023-03-01T05:34:32.188Z,-0.3888888888888573
2023-03-01T05:35:32.255Z,-0.3888888888888573
2023-03-01T05:36:32.515Z,-0.3888888888888573
2023-03-01T05:37:32.204Z,-0.3888888888888573
2023-03-01T05:38:32.222Z,-0.3888888888888573
2023-03-01T05:39:32.238Z,-0.3888888888888573
2023-03-01T05:40:32.203Z,-0.3888888888888573
2023-03-01T05:41:32.242Z,-0.3888888888888573
2023-03-01T05:42:32.201Z,-0.3888888888888573
2023-03-01T05:43:32.231Z,-0.3888888888888573
2023-03-01T05:44:32.206Z,-0.3888888888888573
2023-03-01T05:45:32.226Z,-0.3888888888888573
2023-03-01T05:46:32.600Z,-0.3888888888888573
2023-03-01T05:47:32.276Z,-0.3888888888888573
2023-03-01T05:48:32.186Z,-0.3888888888888573
2023-03-01T05:49:32.193Z,-0.3888888888888573
2023-03-01T05:50:32.189Z,-0.3888888888888573
2023-03-01T05:51:32.212Z,-0.3888888888888573
2023-03-01T05:52:32.192Z,-0.3888888888888573
2023-03-01T05:53:32.235Z,-0.3888888888888573
2023-03-01T05:54:32.194Z,-0.3888888888888573
2023-03-01T05:55:32.219Z,-0.3888888888888573
2023-03-01T05:56:32.522Z,-0.3888888888888573
2023-03-01T05:57:32.251Z,-0.3888888888888573
2023-03-01T05:58:32.230Z,-0.3888888888888573
2023-03-01T05:59:32.237Z,-0.3888888888888573
2023-03-01T06:00:32.222Z,-0.3888888888888573
2023-03-01T06:01:32.227Z,-0.3888888888888573
2023-03-01T06:02:32.231Z,-0.3888888888888573
2023-03-01T06:03:32.217Z,-0.3888888888888573
2023-03-01T06:04:32.258Z,-0.3888888888888573
2023-03-01T06:05:32.296Z,-0.3888888888888573
2023-03-01T06:06:32.577Z,-0.3888888888888573
2023-03-01T06:07:32.248Z,-0.3888888888888573
2023-03-01T06:08:32.198Z,-0.3888888888888573
2023-03-01T06:09:32.223Z,-0.3888888888888573
2023-03-01T06:10:32.267Z,-0.3888888888888573
2023-03-01T06:11:32.237Z,-0.3888888888888573
2023-03-01T06:12:32.208Z,-0.3888888888888573
2023-03-01T06:13:32.220Z,-0.3888888888888573
2023-03-01T06:14:32.217Z,-0.3888888888888573
2023-03-01T06:15:32.339Z,-0.3888888888888573
2023-03-01T06:16:32.596Z,-0.3888888888888573
2023-03-01T06:17:32.240Z,-0.3888888888888573
2023-03-01T06:18:32.229Z,-0.3888888888888573
2023-03-01T06:19:32.218Z,-0.3888888888888573
2023-03-01T06:20:32.181Z,-0.3888888888888573
2023-03-01T06:21:32.225Z,-0.2777777777777146
2023-03-01T06:22:32.211Z,-0.2777777777777146
2023-03-01T06:23:32.188Z,-0.2777777777777146
2023-03-01T06:24:32.233Z,-0.2777777777777146
2023-03-01T06:25:32.185Z,-0.2777777777777146
2023-03-01T06:26:32.579Z,-0.2222222222221717
2023-03-01T06:27:32.264Z,-0.2222222222221717
2023-03-01T06:28:32.237Z,-0.2222222222221717
2023-03-01T06:29:32.224Z,-0.2222222222221717
2023-03-01T06:30:32.197Z,-0.2222222222221717
2023-03-01T06:31:32.328Z,-0.2222222222221717
2023-03-01T06:32:32.231Z,-0.2222222222221717
2023-03-01T06:33:32.206Z,-0.2222222222221717
2023-03-01T06:34:32.205Z,-0.2222222222221717
2023-03-01T06:35:32.330Z,-0.2777777777777146
2023-03-01T06:36:32.561Z,-0.2777777777777146
2023-03-01T06:37:32.216Z,-0.2222222222221717
2023-03-01T06:38:32.194Z,-0.2222222222221717
2023-03-01T06:39:32.210Z,-0.2222222222221717
2023-03-01T06:40:32.270Z,-0.2222222222221717
2023-03-01T06:41:32.241Z,-0.2222222222221717
2023-03-01T06:42:32.218Z,-0.2222222222221717
2023-03-01T06:43:32.211Z,-0.2222222222221717
2023-03-01T06:44:32.208Z,-0.2222222222221717
2023-03-01T06:45:32.191Z,-0.2222222222221717
2023-03-01T06:46:32.530Z,-0.2222222222221717
2023-03-01T06:47:32.211Z,-0.2222222222221717
2023-03-01T06:48:32.220Z,-0.2222222222221717
2023-03-01T06:49:32.288Z,-0.11111111111108585
2023-03-01T06:50:32.263Z,-0.11111111111108585
2023-03-01T06:51:32.226Z,-0.11111111111108585
2023-03-01T06:52:32.226Z,-0.11111111111108585
2023-03-01T06:53:32.277Z,5.684341886080802e-14
2023-03-01T06:54:32.199Z,5.684341886080802e-14
2023-03-01T06:55:32.199Z,0.11111111111114269
2023-03-01T06:56:32.566Z,0.11111111111114269
2023-03-01T06:57:32.281Z,0.22222222222222854
2023-03-01T06:58:32.189Z,0.2777777777778283
2023-03-01T06:59:32.194Z,0.2777777777778283
2023-03-01T07:00:32.227Z,0.38888888888891415
2023-03-01T07:01:32.240Z,0.5000000000000568
2023-03-01T07:02:32.301Z,0.6111111111111427
2023-03-01T07:03:32.275Z,0.7777777777778283
2023-03-01T07:04:32.200Z,0.888888888888971
2023-03-01T07:05:32.239Z,1.1111111111111427
2023-03-01T07:06:32.636Z,1.2222222222222854
2023-03-01T07:07:32.192Z,1.2222222222222854
2023-03-01T07:08:32.206Z,1.1111111111111427
2023-03-01T07:09:32.216Z,1.1111111111111427
2023-03-01T07:10:32.195Z,1.1111111111111427
2023-03-01T07:11:32.187Z,1.2222222222222854
2023-03-01T07:12:32.244Z,1.2222222222222854
2023-03-01T07:13:32.197Z,1.2222222222222854
2023-03-01T07:14:32.224Z,1.2222222222222854
2023-03-01T07:15:32.187Z,1.2222222222222854
2023-03-01T07:16:32.566Z,1.2777777777778283
2023-03-01T07:17:32.206Z,1.3888888888889142
2023-03-01T07:18:32.186Z,1.5000000000000568
2023-03-01T07:19:32.188Z,1.6111111111111427
2023-03-01T07:20:32.234Z,1.6111111111111427
2023-03-01T07:21:32.188Z,1.7222222222222854
2023-03-01T07:22:32.176Z,1.7222222222222854
2023-03-01T07:23:32.197Z,1.7777777777778283
2023-03-01T07:24:32.212Z,1.8888888888889142
2023-03-01T07:25:32.242Z,1.8888888888889142
2023-03-01T07:26:32.471Z,2.000000000000057
2023-03-01T07:27:32.194Z,2.1111111111111427
2023-03-01T07:28:32.225Z,2.1111111111111427
2023-03-01T07:29:32.203Z,2.1111111111111427
2023-03-01T07:30:32.226Z,2.1111111111111427
2023-03-01T07:31:32.203Z,2.1111111111111427
2023-03-01T07:32:32.304Z,2.2222222222222854
2023-03-01T07:33:32.255Z,2.388888888888914
2023-03-01T07:34:32.288Z,2.500000000000057
2023-03-01T07:35:32.269Z,2.6111111111111427
2023-03-01T07:36:32.664Z,2.7222222222222285
2023-03-01T07:37:32.256Z,2.7777777777778283
2023-03-01T07:38:32.193Z,2.7222222222222285
2023-03-01T07:39:32.205Z,2.7222222222222285
2023-03-01T07:40:32.285Z,2.7222222222222285
2023-03-01T07:41:32.240Z,2.7222222222222285
2023-03-01T07:42:32.186Z,2.7222222222222285
2023-03-01T07:43:32.237Z,2.7222222222222285
2023-03-01T07:44:32.194Z,2.7222222222222285
2023-03-01T07:45:32.234Z,2.7222222222222285
2023-03-01T07:46:32.435Z,2.500000000000057
2023-03-01T07:47:32.196Z,2.500000000000057
2023-03-01T07:48:32.212Z,2.6111111111111427
2023-03-01T07:49:32.229Z,2.6111111111111427
2023-03-01T07:50:32.177Z,2.7777777777778283
2023-03-01T07:51:32.271Z,2.888888888888914
2023-03-01T07:52:32.201Z,3.000000000000057
2023-03-01T07:53:32.204Z,3.1111111111111427
2023-03-01T07:54:32.221Z,3.2222222222222854
2023-03-01T07:55:32.176Z,3.2222222222222854
2023-03-01T07:56:32.509Z,3.2222222222222854
2023-03-01T07:57:32.181Z,3.2222222222222854
2023-03-01T07:58:32.230Z,3.2777777777778283
2023-03-01T07:59:32.188Z,3.500000000000057
2023-03-01T08:00:32.292Z,3.7777777777778283
2023-03-01T08:01:32.259Z,3.888888888888914
2023-03-01T08:02:32.219Z,4.000000000000057
2023-03-01T08:03:32.292Z,4.222222222222285
2023-03-01T08:04:32.229Z,4.111111111111143
2023-03-01T08:05:32.162Z,4.111111111111143
2023-03-01T08:06:32.688Z,4.000000000000057
2023-03-01T08:07:32.199Z,4.111111111111143
2023-03-01T08:08:32.223Z,4.222222222222285
2023-03-01T08:09:32.216Z,4.222222222222285
2023-03-01T08:10:32.190Z,4.111111111111143
2023-03-01T08:11:32.205Z,3.888888888888914
2023-03-01T08:12:32.190Z,3.888888888888914
2023-03-01T08:13:32.219Z,3.888888888888914
2023-03-01T08:14:32.261Z,3.7222222222222854
2023-03-01T08:15:32.187Z,3.7222222222222854
2023-03-01T08:16:32.719Z,3.6111111111111427
2023-03-01T08:17:32.198Z,3.6111111111111427
2023-03-01T08:18:32.207Z,3.6111111111111427
2023-03-01T08:19:32.173Z,3.6111111111111427
2023-03-01T08:20:32.207Z,3.6111111111111427
2023-03-01T08:21:32.170Z,3.6111111111111427
2023-03-01T08:22:32.209Z,3.6111111111111427
2023-03-01T08:23:32.129Z,3.6111111111111427
2023-03-01T08:24:32.181Z,3.7222222222222854
2023-03-01T08:25:32.163Z,3.888888888888914
2023-03-01T08:26:32.526Z,4.000000000000057
2023-03-01T08:27:32.192Z,4.111111111111143
2023-03-01T08:28:32.202Z,4.500000000000057
2023-03-01T08:29:32.190Z,4.500000000000057
2023-03-01T08:30:32.213Z,4.500000000000057
2023-03-01T08:31:32.258Z,4.500000000000057
2023-03-01T08:32:32.195Z,4.500000000000057
2023-03-01T08:33:32.181Z,4.500000000000057
2023-03-01T08:34:32.201Z,4.500000000000057
2023-03-01T08:35:32.214Z,4.500000000000057
2023-03-01T08:36:32.604Z,4.277777777777828
2023-03-01T08:37:32.184Z,4.277777777777828
2023-03-01T08:38:32.196Z,4.277777777777828
2023-03-01T08:39:32.213Z,4.277777777777828
2023-03-01T08:40:32.188Z,4.111111111111143
2023-03-01T08:41:32.169Z,4.111111111111143
2023-03-01T08:42:32.207Z,4.111111111111143
2023-03-01T08:43:32.202Z,4.000000000000057
2023-03-01T08:44:32.169Z,4.000000000000057
2023-03-01T08:45:32.255Z,4.111111111111143
2023-03-01T08:46:32.598Z,4.222222222222285
2023-03-01T08:47:32.176Z,4.277777777777828
2023-03-01T08:48:32.217Z,4.388888888888914
2023-03-01T08:49:32.159Z,4.611111111111143
2023-03-01T08:50:32.189Z,4.777777777777828
2023-03-01T08:51:32.180Z,4.777777777777828
2023-03-01T08:52:32.163Z,4.777777777777828
2023-03-01T08:53:32.170Z,5.000000000000057
2023-03-01T08:54:32.241Z,5.111111111111143
2023-03-01T08:55:32.168Z,5.111111111111143
2023-03-01T08:56:32.406Z,5.000000000000057
2023-03-01T08:57:32.176Z,4.888888888888914
2023-03-01T08:58:32.186Z,4.888888888888914